Time;durP1;ratioP1;P1;durP2;ratioP2;P2;SDS_P1;SDS_P2;PMS_P1;PMS_P2;Temp;Humidity;BMP_temperature;BMP_pressure;BME280_temperature;BME280_humidity;BME280_pressure;Samples;Min_cycle;Max_cycle;Signal;HPM_P1;HPM_P2
2021/03/15 00:00:41;;;;;;;4.53;1.08;;;6.30;99.10;;;;;;5011995;28;20352;-76
2021/03/15 00:03:07;;;;;;;7.20;1.75;;;6.30;99.30;;;;;;5011093;28;20551;-77
2021/03/15 00:05:33;;;;;;;2.13;1.00;;;6.30;99.30;;;;;;5012081;28;20101;-77
2021/03/15 00:07:59;;;;;;;7.55;2.08;;;6.30;99.60;;;;;;5012538;28;20026;-77
2021/03/15 00:10:25;;;;;;;8.43;2.47;;;6.30;98.80;;;;;;5011956;28;20029;-77
2021/03/15 00:12:52;;;;;;;6.22;1.17;;;6.30;99.00;;;;;;5010948;28;20045;-76
2021/03/15 00:15:20;;;;;;;10.30;1.08;;;6.30;99.10;;;;;;5011634;28;20061;-77
2021/03/15 00:17:46;;;;;;;3.63;1.67;;;6.30;98.40;;;;;;5012294;28;20080;-76
2021/03/15 00:20:13;;;;;;;5.15;1.20;;;6.30;99.20;;;;;;5012221;28;20061;-77
2021/03/15 00:22:40;;;;;;;6.65;1.30;;;6.30;98.90;;;;;;5027329;28;20030;-76
2021/03/15 00:25:07;;;;;;;11.02;1.30;;;6.20;98.50;;;;;;5011760;28;20041;-77
2021/03/15 00:27:34;;;;;;;3.95;1.85;;;6.30;98.20;;;;;;5011501;28;20029;-77
2021/03/15 00:30:00;;;;;;;6.00;1.10;;;6.30;98.40;;;;;;5011311;28;20041;-78
2021/03/15 00:32:26;;;;;;;5.35;1.30;;;6.30;99.10;;;;;;5012170;28;20034;-77
2021/03/15 00:34:52;;;;;;;2.45;0.80;;;6.30;98.80;;;;;;5012033;28;20056;-77
2021/03/15 00:37:18;;;;;;;7.53;1.15;;;6.30;99.10;;;;;;5011800;28;20030;-77
2021/03/15 00:39:43;;;;;;;2.63;0.77;;;6.30;99.00;;;;;;5011889;28;20030;-77
2021/03/15 00:42:09;;;;;;;3.25;0.90;;;6.30;98.40;;;;;;5010811;28;20026;-77
2021/03/15 00:44:35;;;;;;;6.88;1.35;;;6.30;99.10;;;;;;5011296;28;20025;-77
2021/03/15 00:47:02;;;;;;;4.88;1.55;;;6.30;99.60;;;;;;5011799;28;20449;-77
2021/03/15 00:49:28;;;;;;;5.93;1.08;;;6.30;99.20;;;;;;5011402;28;20026;-77
2021/03/15 00:51:54;;;;;;;2.90;1.30;;;6.30;99.00;;;;;;5012018;28;20391;-77
2021/03/15 00:54:21;;;;;;;8.20;1.55;;;6.40;98.50;;;;;;5011597;28;20030;-77
2021/03/15 00:56:47;;;;;;;4.25;1.00;;;6.30;98.20;;;;;;5011627;28;20032;-77
2021/03/15 00:59:13;;;;;;;4.57;1.05;;;6.30;99.00;;;;;;5011841;28;20490;-77
2021/03/15 01:01:40;;;;;;;8.88;1.27;;;6.30;98.50;;;;;;5012030;28;20029;-77
2021/03/15 01:04:08;;;;;;;3.45;0.60;;;6.30;98.30;;;;;;5012990;28;20029;-76
2021/03/15 01:06:34;;;;;;;6.82;1.30;;;6.30;97.90;;;;;;5014962;28;20022;-77
2021/03/15 01:08:59;;;;;;;4.53;0.90;;;6.30;97.20;;;;;;5015294;28;20453;-77
2021/03/15 01:11:25;;;;;;;5.93;1.20;;;6.30;97.30;;;;;;5014379;28;20107;-78
2021/03/15 01:13:52;;;;;;;3.97;1.10;;;6.30;96.80;;;;;;5014530;28;20109;-77
2021/03/15 01:16:18;;;;;;;4.57;1.52;;;6.30;97.80;;;;;;5014864;28;20038;-77
2021/03/15 01:18:44;;;;;;;5.00;1.10;;;6.20;97.30;;;;;;5015392;28;20017;-77
2021/03/15 01:21:14;;;;;;;4.75;1.27;;;6.20;97.60;;;;;;5015278;28;20034;-77
2021/03/15 01:23:40;;;;;;;6.07;0.93;;;6.10;97.10;;;;;;5008169;28;20121;-78
2021/03/15 01:26:06;;;;;;;3.22;1.00;;;6.00;98.00;;;;;;5014903;28;20554;-77
2021/03/15 01:28:32;;;;;;;3.45;0.90;;;6.00;97.90;;;;;;5014497;28;20022;-78
2021/03/15 01:30:59;;;;;;;3.90;0.82;;;5.90;98.20;;;;;;5014865;28;20061;-77
2021/03/15 01:33:25;;;;;;;4.90;1.33;;;5.70;99.60;;;;;;5015293;28;20022;-77
2021/03/15 01:35:52;;;;;;;5.43;1.77;;;5.70;99.50;;;;;;5015223;28;20025;-77
2021/03/15 01:38:17;;;;;;;7.30;1.20;;;5.70;99.50;;;;;;5014394;28;20478;-77
2021/03/15 01:40:44;;;;;;;3.88;1.17;;;5.80;99.50;;;;;;5014574;28;20030;-77
2021/03/15 01:43:10;;;;;;;4.78;1.08;;;5.80;99.80;;;;;;5014710;28;20049;-77
2021/03/15 01:45:36;;;;;;;5.38;1.80;;;5.80;99.90;;;;;;5013794;28;20556;-77
2021/03/15 01:48:05;;;;;;;8.07;2.30;;;5.70;99.90;;;;;;5013353;28;20076;-77
2021/03/15 01:50:30;;;;;;;3.97;2.15;;;5.60;99.90;;;;;;5013330;28;20054;-77
2021/03/15 01:52:56;;;;;;;6.22;1.13;;;5.50;99.90;;;;;;5014470;28;20133;-77
2021/03/15 01:55:23;;;;;;;3.03;1.55;;;5.40;99.90;;;;;;5014441;28;20033;-77
2021/03/15 01:57:49;;;;;;;2.35;0.98;;;5.30;99.90;;;;;;5014194;28;20394;-77
2021/03/15 02:00:17;;;;;;;5.72;0.73;;;5.30;99.90;;;;;;5014216;28;20026;-76
2021/03/15 02:02:48;;;;;;;4.22;0.95;;;5.30;99.90;;;;;;5014297;28;20112;-77
2021/03/15 02:05:14;;;;;;;5.13;0.90;;;5.20;99.90;;;;;;5014476;28;20420;-76
2021/03/15 02:07:40;;;;;;;3.42;0.98;;;5.20;99.90;;;;;;5012607;28;20038;-76
2021/03/15 02:10:06;;;;;;;3.35;0.80;;;5.20;99.90;;;;;;5013564;28;20510;-76
2021/03/15 02:12:32;;;;;;;4.70;1.00;;;5.20;99.90;;;;;;5012622;28;20088;-76
2021/03/15 02:14:58;;;;;;;6.38;0.88;;;5.30;99.90;;;;;;5013562;28;20030;-77
2021/03/15 02:17:49;;;;;;;3.83;0.93;;;5.40;99.90;;;;;;5011540;28;20042;-76
2021/03/15 02:20:42;;;;;;;5.57;1.95;;;5.50;99.90;;;;;;4992544;28;20463;-77
2021/03/15 02:23:31;;;;;;;4.13;0.90;;;5.60;99.90;;;;;;4991874;28;20018;-77
2021/03/15 02:26:09;;;;;;;6.35;0.90;;;5.70;99.90;;;;;;4991554;28;20042;-77
2021/03/15 02:29:19;;;;;;;2.45;0.70;;;5.70;99.90;;;;;;4991739;28;20065;-77
2021/03/15 02:32:29;;;;;;;3.00;0.80;;;5.70;99.90;;;;;;4991638;28;20549;-77
2021/03/15 02:35:04;;;;;;;5.38;0.90;;;5.70;99.90;;;;;;4991230;28;20105;-77
2021/03/15 02:37:42;;;;;;;6.05;1.00;;;5.70;99.90;;;;;;4991017;28;20100;-77
2021/03/15 02:40:17;;;;;;;7.00;1.52;;;5.70;99.90;;;;;;4991374;28;20027;-76
2021/03/15 02:42:47;;;;;;;7.18;1.30;;;5.70;99.80;;;;;;4993104;28;20465;-77
2021/03/15 02:45:14;;;;;;;3.95;0.85;;;5.70;99.90;;;;;;4991716;28;20039;-76
2021/03/15 02:47:41;;;;;;;3.55;0.80;;;5.70;99.90;;;;;;4998349;28;20038;-77
2021/03/15 02:50:10;;;;;;;2.35;1.00;;;5.60;99.70;;;;;;4990391;28;20078;-77
2021/03/15 02:52:43;;;;;;;7.32;1.10;;;5.60;99.10;;;;;;4990025;28;20125;-77
2021/03/15 02:55:12;;;;;;;3.92;1.02;;;5.70;99.50;;;;;;4990401;28;20054;-77
2021/03/15 02:57:41;;;;;;;3.72;1.17;;;5.70;99.10;;;;;;4995485;28;20136;-78
2021/03/15 03:00:08;;;;;;;9.00;1.52;;;5.80;98.20;;;;;;5009071;28;20557;-77
2021/03/15 03:02:37;;;;;;;5.10;1.08;;;5.70;98.70;;;;;;5010579;28;20442;-77
2021/03/15 03:05:07;;;;;;;4.78;0.80;;;5.70;98.90;;;;;;5010485;28;20057;-77
2021/03/15 03:07:34;;;;;;;;;;;5.80;98.40;;;;;;5011704;28;20636;-77
2021/03/15 03:10:01;;;;;;;3.33;0.52;;;5.90;98.30;;;;;;5013151;28;19909;-77
2021/03/15 03:12:28;;;;;;;3.70;0.50;;;5.90;98.40;;;;;;5012730;28;20046;-77
2021/03/15 03:14:55;;;;;;;5.53;0.60;;;5.90;97.90;;;;;;5013254;28;20113;-77
2021/03/15 03:17:22;;;;;;;3.65;0.95;;;5.90;98.00;;;;;;5010646;28;20091;-77
2021/03/15 03:19:50;;;;;;;2.20;0.70;;;5.80;97.80;;;;;;5012443;28;20018;-76
2021/03/15 03:22:18;;;;;;;3.88;0.85;;;5.90;98.40;;;;;;5013172;28;20022;-77
2021/03/15 03:24:46;;;;;;;2.55;0.50;;;5.90;98.10;;;;;;5012391;28;20037;-77
2021/03/15 03:27:14;;;;;;;4.90;0.82;;;5.90;99.20;;;;;;5008541;28;20030;-77
2021/03/15 03:29:41;;;;;;;5.60;0.80;;;5.90;98.60;;;;;;5012378;28;20038;-77
2021/03/15 03:32:07;;;;;;;6.50;1.25;;;5.90;98.60;;;;;;5012335;28;20121;-77
2021/03/15 03:34:34;;;;;;;2.00;0.68;;;5.90;98.40;;;;;;5007936;28;20497;-76
2021/03/15 03:36:59;;;;;;;4.78;1.27;;;6.00;98.70;;;;;;5004779;28;20120;-77
2021/03/15 03:39:25;;;;;;;2.47;0.65;;;6.00;98.50;;;;;;5012826;28;20593;-77
2021/03/15 03:41:51;;;;;;;1.45;0.52;;;6.00;98.70;;;;;;5011706;28;20160;-78
2021/03/15 03:44:17;;;;;;;3.83;2.15;;;6.00;98.40;;;;;;5012265;28;20101;-77
2021/03/15 03:46:45;;;;;;;4.97;0.85;;;5.90;99.00;;;;;;5012691;28;20030;-77
2021/03/15 03:49:11;;;;;;;4.32;0.70;;;5.90;99.20;;;;;;5012404;28;20026;-77
2021/03/15 03:52:06;;;;;;;3.03;0.63;;;5.90;99.20;;;;;;5012683;28;20077;-77
2021/03/15 03:54:49;;;;;;;4.10;0.70;;;5.90;98.90;;;;;;5012737;28;20099;-77
2021/03/15 03:57:27;;;;;;;2.33;0.70;;;5.90;98.40;;;;;;5011959;28;20045;-77
2021/03/15 03:59:55;;;;;;;5.03;0.70;;;6.00;98.60;;;;;;5012157;28;20407;-78
2021/03/15 04:02:25;;;;;;;2.28;0.43;;;6.00;98.90;;;;;;5012344;28;20113;-77
2021/03/15 04:04:57;;;;;;;;;;;6.00;97.20;;;;;;5010944;28;20018;-77
2021/03/15 04:07:25;;;;;;;3.42;0.70;;;6.00;96.90;;;;;;5012055;28;19905;-77
2021/03/15 04:10:08;;;;;;;2.67;0.85;;;6.10;96.10;;;;;;5012466;28;20119;-78
2021/03/15 04:12:36;;;;;;;3.08;1.08;;;6.10;97.10;;;;;;4998552;28;20042;-78
2021/03/15 04:15:03;;;;;;;1.77;0.70;;;6.10;96.80;;;;;;5012282;28;20661;-78
2021/03/15 04:17:39;;;;;;;4.50;0.50;;;6.10;96.30;;;;;;5011820;28;20049;-78
2021/03/15 04:20:07;;;;;;;3.60;0.80;;;6.10;96.30;;;;;;5012261;28;20378;-77
2021/03/15 04:22:38;;;;;;;2.40;0.80;;;6.10;95.70;;;;;;5012173;28;20025;-78
2021/03/15 04:25:05;;;;;;;5.15;0.50;;;6.10;95.80;;;;;;5011753;28;20076;-77
2021/03/15 04:27:32;;;;;;;2.55;0.60;;;6.20;96.40;;;;;;5010967;28;20069;-77
2021/03/15 04:29:59;;;;;;;3.83;0.70;;;6.20;94.60;;;;;;5012284;28;20034;-77
2021/03/15 04:32:26;;;;;;;3.72;0.50;;;6.20;95.90;;;;;;5011511;28;20065;-77
2021/03/15 04:34:53;;;;;;;6.32;1.27;;;6.20;95.20;;;;;;5012052;28;20030;-77
2021/03/15 04:37:20;;;;;;;5.43;0.70;;;6.20;95.90;;;;;;5015764;28;20037;-77
2021/03/15 04:39:47;;;;;;;5.10;1.20;;;6.20;95.30;;;;;;5015488;28;20072;-77
2021/03/15 04:42:14;;;;;;;5.78;0.85;;;6.20;96.00;;;;;;5014836;28;20482;-77
2021/03/15 04:44:41;;;;;;;7.15;0.63;;;6.20;94.70;;;;;;5015938;28;20436;-77
2021/03/15 04:47:08;;;;;;;1.85;0.85;;;6.20;95.70;;;;;;5011306;28;20073;-77
2021/03/15 04:49:36;;;;;;;2.55;0.38;;;6.20;95.00;;;;;;5010311;28;20120;-77
2021/03/15 04:52:02;;;;;;;4.75;0.75;;;6.20;94.80;;;;;;5015230;28;20026;-78
2021/03/15 04:54:28;;;;;;;3.83;0.60;;;6.20;95.90;;;;;;5014402;28;20654;-77
2021/03/15 04:56:55;;;;;;;4.35;0.63;;;6.20;95.90;;;;;;5015184;28;20033;-77
2021/03/15 04:59:21;;;;;;;2.78;0.40;;;6.20;96.10;;;;;;5015052;28;20033;-77
2021/03/15 05:01:48;;;;;;;5.50;0.60;;;6.20;96.50;;;;;;5013787;28;20022;-77
2021/03/15 05:04:16;;;;;;;2.30;0.60;;;6.20;96.20;;;;;;5007062;28;20026;-77
2021/03/15 05:06:45;;;;;;;4.45;0.50;;;6.10;96.40;;;;;;5013601;28;20489;-77
2021/03/15 05:09:13;;;;;;;4.47;2.42;;;6.20;97.20;;;;;;4999659;28;20034;-78
2021/03/15 05:11:42;;;;;;;2.90;0.40;;;6.10;96.70;;;;;;5011248;28;20034;-77
2021/03/15 05:14:08;;;;;;;2.72;0.70;;;6.10;97.10;;;;;;5013797;28;20041;-77
2021/03/15 05:16:36;;;;;;;5.97;0.93;;;6.10;97.40;;;;;;5012032;28;20037;-77
2021/03/15 05:19:05;;;;;;;11.75;2.15;;;6.10;97.00;;;;;;5009408;28;20022;-77
2021/03/15 05:21:33;;;;;;;2.85;1.00;;;6.10;96.80;;;;;;5009103;28;20101;-78
2021/03/15 05:23:59;;;;;;;2.33;0.77;;;6.10;97.90;;;;;;5001924;28;20379;-78
2021/03/15 05:26:26;;;;;;;2.08;0.43;;;6.10;97.70;;;;;;4999550;28;20525;-77
2021/03/15 05:28:54;;;;;;;3.25;0.95;;;6.10;97.20;;;;;;5013761;28;20037;-77
2021/03/15 05:31:21;;;;;;;9.40;1.50;;;6.10;97.60;;;;;;5005447;28;20049;-77
2021/03/15 05:33:49;;;;;;;2.22;0.55;;;6.10;98.20;;;;;;5007464;28;20053;-77
2021/03/15 05:36:16;;;;;;;3.55;0.70;;;6.10;98.30;;;;;;5011433;28;20036;-77
2021/03/15 05:38:43;;;;;;;1.80;0.50;;;6.10;97.60;;;;;;5013755;28;20033;-77
2021/03/15 05:41:12;;;;;;;3.60;0.52;;;6.10;96.80;;;;;;5013659;28;20022;-77
2021/03/15 05:44:33;;;;;;;2.92;0.77;;;6.20;96.20;;;;;;5014210;28;20032;-77
2021/03/15 05:47:36;;;;;;;2.63;0.40;;;6.20;94.90;;;;;;5018327;28;20036;-78
2021/03/15 05:50:35;;;;;;;4.22;0.88;;;6.20;94.80;;;;;;5031619;28;20077;-78
2021/03/15 05:53:15;;;;;;;2.95;0.30;;;6.30;93.70;;;;;;5032218;28;20099;-77
2021/03/15 05:56:13;;;;;;;7.22;0.85;;;6.30;94.50;;;;;;5029920;28;20045;-78
2021/03/15 05:58:56;;;;;;;3.60;0.90;;;6.30;93.70;;;;;;5030267;28;20037;-77
2021/03/15 06:01:43;;;;;;;3.45;0.63;;;6.30;94.30;;;;;;5031373;28;20029;-78
2021/03/15 06:04:36;;;;;;;4.07;0.82;;;6.30;94.60;;;;;;5031860;28;20044;-78
2021/03/15 06:07:06;;;;;;;4.45;1.00;;;6.20;95.60;;;;;;5017392;28;20116;-78
2021/03/15 06:09:40;;;;;;;5.63;0.88;;;6.20;95.80;;;;;;5031686;28;20406;-78
2021/03/15 06:12:15;;;;;;;4.05;0.52;;;6.20;96.00;;;;;;5031475;28;20057;-77
2021/03/15 06:14:42;;;;;;;8.65;1.10;;;6.20;96.10;;;;;;5030102;28;20048;-77
2021/03/15 06:17:09;;;;;;;3.67;0.90;;;6.20;97.50;;;;;;5031493;28;20053;-77
2021/03/15 06:19:36;;;;;;;4.43;0.80;;;6.10;97.90;;;;;;5031654;28;20037;-78
2021/03/15 06:22:02;;;;;;;3.28;0.60;;;6.10;97.90;;;;;;5029246;28;20038;-77
2021/03/15 06:24:28;;;;;;;2.22;0.40;;;6.20;98.10;;;;;;5017185;28;20087;-77
2021/03/15 06:26:56;;;;;;;4.13;0.77;;;6.20;98.40;;;;;;5014127;28;20552;-77
2021/03/15 06:29:22;;;;;;;2.10;0.77;;;6.10;98.10;;;;;;5012301;28;20030;-77
2021/03/15 06:31:50;;;;;;;5.47;1.25;;;6.10;98.70;;;;;;5005311;28;20041;-77
2021/03/15 06:34:16;;;;;;;1.75;0.45;;;6.00;99.90;;;;;;5013915;28;20029;-77
2021/03/15 06:36:43;;;;;;;4.90;0.85;;;6.00;99.90;;;;;;5005058;28;20033;-77
2021/03/15 06:39:14;;;;;;;8.88;1.52;;;5.90;99.90;;;;;;5011385;28;20478;-78
2021/03/15 06:41:45;;;;;;;2.75;0.85;;;5.80;99.90;;;;;;5006330;28;20018;-77
2021/03/15 06:44:11;;;;;;;2.83;0.70;;;5.80;99.90;;;;;;5005637;28;20033;-77
2021/03/15 06:46:40;;;;;;;2.67;0.90;;;5.80;99.90;;;;;;5024150;28;20034;-78
2021/03/15 06:49:06;;;;;;;2.45;0.60;;;5.90;99.90;;;;;;5005114;28;20360;-77
2021/03/15 06:51:33;;;;;;;5.28;1.02;;;5.90;99.90;;;;;;5007459;28;20064;-78
2021/03/15 06:53:59;;;;;;;4.85;0.93;;;5.80;99.90;;;;;;5000349;28;20034;-78
2021/03/15 06:56:24;;;;;;;5.15;0.57;;;5.70;99.90;;;;;;5009140;28;20022;-77
2021/03/15 06:58:56;;;;;;;5.75;0.85;;;5.70;99.90;;;;;;5012778;28;20084;-75
2021/03/15 07:01:25;;;;;;;6.15;0.85;;;5.80;99.90;;;;;;5013152;28;20057;-77
2021/03/15 07:04:02;;;;;;;3.80;0.60;;;5.80;99.90;;;;;;5002508;28;20045;-77
2021/03/15 07:06:38;;;;;;;3.13;0.57;;;5.80;99.90;;;;;;4993762;28;20026;-77
2021/03/15 07:09:14;;;;;;;0.77;0.40;;;6.10;99.90;;;;;;5002252;28;20064;-77
2021/03/15 07:11:40;;;;;;;2.30;0.40;;;6.40;99.00;;;;;;5012432;28;20037;-77
2021/03/15 07:14:06;;;;;;;5.60;0.60;;;6.60;98.60;;;;;;5013251;28;20455;-78
2021/03/15 07:16:33;;;;;;;3.50;0.85;;;6.80;97.70;;;;;;5012817;28;20040;-77
2021/03/15 07:19:02;;;;;;;4.63;0.60;;;6.90;98.20;;;;;;5012885;28;20022;-77
2021/03/15 07:21:36;;;;;;;5.57;0.90;;;6.90;98.90;;;;;;5013131;28;20030;-77
2021/03/15 07:24:07;;;;;;;5.30;2.10;;;7.00;98.70;;;;;;5012875;28;20034;-77
2021/03/15 07:26:34;;;;;;;3.58;0.73;;;7.10;98.50;;;;;;5012165;28;20091;-77
2021/03/15 07:29:08;;;;;;;2.63;0.57;;;7.00;98.60;;;;;;5012393;28;20124;-77
2021/03/15 07:31:34;;;;;;;5.82;1.67;;;7.10;98.70;;;;;;5013030;28;20030;-77
2021/03/15 07:33:59;;;;;;;2.72;0.88;;;7.20;98.60;;;;;;5012393;28;20034;-76
2021/03/15 07:36:30;;;;;;;5.13;0.80;;;7.20;97.50;;;;;;5012795;28;20075;-77
2021/03/15 07:38:57;;;;;;;8.88;1.90;;;7.30;98.10;;;;;;5012710;28;20402;-76
2021/03/15 07:41:23;;;;;;;5.13;0.82;;;7.40;97.10;;;;;;5012560;28;20056;-79
2021/03/15 07:43:51;;;;;;;3.30;0.95;;;7.60;96.60;;;;;;5012604;28;20030;-77
2021/03/15 07:46:27;;;;;;;5.43;2.05;;;7.70;95.50;;;;;;5012765;28;20029;-77
2021/03/15 07:48:54;;;;;;;2.80;0.82;;;7.70;95.90;;;;;;5012819;28;20125;-77
2021/03/15 07:51:31;;;;;;;1.48;0.50;;;7.70;94.70;;;;;;5012413;28;20050;-77
2021/03/15 07:54:10;;;;;;;4.53;0.77;;;7.90;95.00;;;;;;5012581;28;20029;-77
2021/03/15 07:56:37;;;;;;;1.42;0.50;;;8.40;92.80;;;;;;5010596;28;20487;-76
2021/03/15 07:59:04;;;;;;;2.40;0.40;;;8.60;91.30;;;;;;5012237;28;20478;-76
2021/03/15 08:01:30;;;;;;;1.45;0.57;;;8.60;90.60;;;;;;5012465;28;20022;-76
2021/03/15 08:03:57;;;;;;;3.47;0.55;;;8.70;89.40;;;;;;5000880;28;20403;-76
2021/03/15 08:06:23;;;;;;;1.10;0.47;;;8.60;88.60;;;;;;5017615;28;20026;-76
2021/03/15 08:08:50;;;;;;;3.03;0.50;;;8.40;89.90;;;;;;5011946;28;20020;-76
2021/03/15 08:11:18;;;;;;;2.03;0.60;;;8.90;87.80;;;;;;5011528;28;20030;-76
2021/03/15 08:13:47;;;;;;;2.70;0.60;;;9.30;84.60;;;;;;5012373;28;20109;-77
2021/03/15 08:16:14;;;;;;;1.38;0.40;;;9.10;85.50;;;;;;5012205;28;20366;-77
2021/03/15 08:18:46;;;;;;;3.15;1.42;;;9.20;82.80;;;;;;5012438;28;20386;-77
2021/03/15 08:21:23;;;;;;;2.13;0.50;;;9.10;82.20;;;;;;5011756;28;20026;-77
2021/03/15 08:23:50;;;;;;;3.10;1.13;;;8.90;83.10;;;;;;5011900;28;20045;-77
2021/03/15 08:26:16;;;;;;;1.95;0.50;;;8.80;81.70;;;;;;5011560;28;20014;-77
2021/03/15 08:28:43;;;;;;;2.30;0.50;;;8.80;84.00;;;;;;5012347;28;20489;-77
2021/03/15 08:31:08;;;;;;;1.88;0.38;;;8.80;80.80;;;;;;5012087;28;20018;-77
2021/03/15 08:33:36;;;;;;;3.30;0.52;;;8.80;83.90;;;;;;5012001;28;20037;-77
2021/03/15 08:36:02;;;;;;;2.40;0.50;;;8.80;82.50;;;;;;5011877;28;20049;-77
2021/03/15 08:38:31;;;;;;;2.95;0.50;;;8.90;83.20;;;;;;5012031;28;20048;-77
2021/03/15 08:41:01;;;;;;;0.82;0.35;;;8.80;81.80;;;;;;5011845;28;20018;-78
2021/03/15 08:43:31;;;;;;;5.72;0.55;;;8.80;81.20;;;;;;5011891;28;20029;-77
2021/03/15 08:46:01;;;;;;;1.83;0.52;;;8.80;83.90;;;;;;5012208;28;20026;-77
2021/03/15 08:48:33;;;;;;;2.17;0.52;;;8.60;83.20;;;;;;5011948;28;20041;-76
2021/03/15 08:51:34;;;;;;;4.57;0.50;;;8.50;85.40;;;;;;5011415;28;20121;-77
2021/03/15 08:54:08;;;;;;;3.70;1.35;;;8.60;81.90;;;;;;5012616;28;20053;-77
2021/03/15 08:56:37;;;;;;;4.13;0.65;;;8.60;85.10;;;;;;5011987;28;20025;-76
2021/03/15 08:59:05;;;;;;;1.48;0.50;;;8.70;83.60;;;;;;5010127;28;20041;-76
2021/03/15 09:01:46;;;;;;;4.10;0.95;;;9.00;84.50;;;;;;5012135;28;20030;-77
2021/03/15 09:04:32;;;;;;;5.78;0.80;;;9.40;81.70;;;;;;4998231;28;20034;-77
2021/03/15 09:06:59;;;;;;;4.70;0.50;;;9.90;77.10;;;;;;4992025;28;20073;-76
2021/03/15 09:09:26;;;;;;;2.03;0.45;;;10.30;73.60;;;;;;5000029;28;20026;-77
2021/03/15 09:11:54;;;;;;;2.13;0.70;;;10.60;75.90;;;;;;5011802;28;20076;-77
2021/03/15 09:14:21;;;;;;;2.47;0.68;;;11.10;72.20;;;;;;5011813;28;20029;-77
2021/03/15 09:16:49;;;;;;;1.27;0.63;;;12.00;67.70;;;;;;5011987;28;20069;-77
2021/03/15 09:19:40;;;;;;;3.28;0.47;;;11.00;72.20;;;;;;5011537;28;20033;-77
2021/03/15 09:22:19;;;;;;;1.48;0.63;;;10.40;73.70;;;;;;5011381;28;20085;-76
2021/03/15 09:24:46;;;;;;;3.88;0.70;;;10.20;72.20;;;;;;5015129;28;20056;-77
2021/03/15 09:27:27;;;;;;;2.35;0.70;;;9.90;72.00;;;;;;5014922;28;20397;-77
2021/03/15 09:30:07;;;;;;;0.60;0.50;;;9.60;70.90;;;;;;5015257;28;20034;-76
2021/03/15 09:32:48;;;;;;;3.63;0.60;;;9.50;74.00;;;;;;5015232;28;20104;-77
2021/03/15 09:35:18;;;;;;;2.90;0.75;;;9.30;75.10;;;;;;5014406;28;20383;-76
2021/03/15 09:37:55;;;;;;;3.22;0.60;;;9.30;75.70;;;;;;5014368;28;20084;-77
2021/03/15 09:40:45;;;;;;;2.22;0.77;;;9.30;77.50;;;;;;5014593;28;20371;-76
2021/03/15 09:43:19;;;;;;;3.05;0.47;;;9.40;78.70;;;;;;5009585;28;20096;-77
2021/03/15 09:45:52;;;;;;;3.13;0.60;;;9.40;76.10;;;;;;5014833;28;20479;-77
2021/03/15 09:48:21;;;;;;;1.50;0.60;;;9.50;78.30;;;;;;5014481;28;20036;-76
2021/03/15 09:50:50;;;;;;;3.30;0.80;;;9.60;77.50;;;;;;5014751;28;20058;-77
2021/03/15 09:53:16;;;;;;;3.78;0.68;;;10.10;76.30;;;;;;5014300;28;20026;-77
2021/03/15 09:55:42;;;;;;;4.45;1.33;;;10.60;75.40;;;;;;5014169;28;20049;-77
2021/03/15 09:58:10;;;;;;;2.42;0.52;;;10.50;72.00;;;;;;5014214;28;20049;-77
2021/03/15 10:00:36;;;;;;;2.63;0.50;;;10.40;72.80;;;;;;5014502;28;20033;-77
2021/03/15 10:03:03;;;;;;;4.50;0.75;;;10.70;73.60;;;;;;5010459;28;20391;-77
2021/03/15 10:05:29;;;;;;;3.70;0.70;;;10.90;72.60;;;;;;5022165;28;20022;-77
2021/03/15 10:07:54;;;;;;;2.80;0.80;;;11.10;66.50;;;;;;5013876;28;20037;-77
2021/03/15 10:10:23;;;;;;;2.70;1.33;;;11.30;69.50;;;;;;5013922;28;20061;-77
2021/03/15 10:13:09;;;;;;;2.50;0.50;;;11.60;67.20;;;;;;5014484;28;20018;-77
2021/03/15 10:15:35;;;;;;;1.98;0.88;;;11.90;65.70;;;;;;5014028;28;20053;-77
2021/03/15 10:18:01;;;;;;;3.80;0.77;;;12.20;65.20;;;;;;5012947;28;20057;-77
2021/03/15 10:20:32;;;;;;;1.40;0.60;;;12.20;65.30;;;;;;5013772;28;20143;-76
2021/03/15 10:23:13;;;;;;;1.42;0.52;;;11.20;67.20;;;;;;5014140;28;20017;-77
2021/03/15 10:25:40;;;;;;;2.55;0.77;;;10.60;68.70;;;;;;5013970;28;20104;-76
2021/03/15 10:28:06;;;;;;;2.05;0.70;;;10.50;72.00;;;;;;5013939;28;20017;-77
2021/03/15 10:30:34;;;;;;;2.83;0.60;;;10.60;74.40;;;;;;5013534;28;20034;-77
2021/03/15 10:33:01;;;;;;;1.13;0.70;;;10.60;73.10;;;;;;5013048;28;20394;-77
2021/03/15 10:35:30;;;;;;;1.55;0.82;;;10.60;73.10;;;;;;5013257;28;20467;-76
2021/03/15 10:38:01;;;;;;;1.50;0.82;;;10.70;71.30;;;;;;5013772;28;20386;-77
2021/03/15 10:40:28;;;;;;;2.35;0.40;;;10.70;71.40;;;;;;5013414;28;20097;-77
2021/03/15 10:42:55;;;;;;;5.28;0.98;;;10.70;70.30;;;;;;5013895;28;20049;-77
2021/03/15 10:45:25;;;;;;;2.17;0.70;;;10.80;70.10;;;;;;5013158;28;20040;-77
2021/03/15 10:47:58;;;;;;;2.85;0.63;;;10.70;68.90;;;;;;5013297;28;20502;-76
2021/03/15 10:50:26;;;;;;;0.75;0.60;;;10.90;69.00;;;;;;5013046;28;20045;-77
2021/03/15 10:52:52;;;;;;;1.73;0.73;;;10.90;70.20;;;;;;5028686;28;20036;-77
2021/03/15 10:55:23;;;;;;;2.17;0.93;;;11.00;69.20;;;;;;5013402;28;20041;-77
2021/03/15 10:58:06;;;;;;;3.13;1.58;;;10.60;70.40;;;;;;5013499;28;20033;-76
2021/03/15 11:00:36;;;;;;;1.20;0.40;;;10.70;71.50;;;;;;5011748;28;20029;-76
2021/03/15 11:03:02;;;;;;;1.73;0.70;;;10.80;71.30;;;;;;5013403;28;20564;-77
2021/03/15 11:05:28;;;;;;;0.73;0.70;;;10.90;71.90;;;;;;5012678;28;20030;-77
2021/03/15 11:07:55;;;;;;;1.05;0.68;;;10.90;73.80;;;;;;5013093;28;20493;-76
2021/03/15 11:10:30;;;;;;;0.95;0.50;;;10.90;71.40;;;;;;5012764;28;20057;-77
2021/03/15 11:12:58;;;;;;;4.22;0.70;;;11.10;71.70;;;;;;5013354;28;20057;-77
2021/03/15 11:15:36;;;;;;;1.52;0.70;;;10.90;71.90;;;;;;5012847;28;20049;-77
2021/03/15 11:18:20;;;;;;;3.25;0.40;;;10.90;72.70;;;;;;5013178;28;20111;-77
2021/03/15 11:20:54;;;;;;;3.92;0.90;;;10.80;74.70;;;;;;5013088;28;20044;-76
2021/03/15 11:23:32;;;;;;;1.80;0.70;;;10.60;73.20;;;;;;5012877;28;20026;-77
2021/03/15 11:26:01;;;;;;;2.28;0.75;;;10.60;74.20;;;;;;5012976;28;20034;-77
2021/03/15 11:28:32;;;;;;;6.63;1.10;;;10.80;75.70;;;;;;5012812;28;20045;-77
2021/03/15 11:30:59;;;;;;;2.33;0.70;;;10.90;74.70;;;;;;5012672;28;20037;-76
2021/03/15 11:33:25;;;;;;;2.95;0.80;;;11.10;74.70;;;;;;5010793;28;20114;-77
2021/03/15 11:35:51;;;;;;;1.90;0.77;;;11.20;74.90;;;;;;5012701;28;20037;-77
2021/03/15 11:38:24;;;;;;;1.63;1.00;;;11.20;75.20;;;;;;5012529;28;20030;-77
2021/03/15 11:40:51;;;;;;;2.50;0.63;;;11.30;75.40;;;;;;5012728;28;20030;-77
2021/03/15 11:43:17;;;;;;;2.08;0.82;;;11.30;73.10;;;;;;5012850;28;20105;-77
2021/03/15 11:45:43;;;;;;;2.65;0.63;;;11.40;73.50;;;;;;5011924;28;20096;-77
2021/03/15 11:48:10;;;;;;;3.60;1.02;;;11.40;73.90;;;;;;5012206;28;20091;-77
2021/03/15 11:50:38;;;;;;;1.65;0.40;;;11.50;74.00;;;;;;5012309;28;20057;-77
2021/03/15 11:53:05;;;;;;;1.40;0.60;;;11.30;73.30;;;;;;5012725;28;20029;-77
2021/03/15 11:55:31;;;;;;;2.38;0.70;;;11.40;73.70;;;;;;5012372;28;20092;-77
2021/03/15 11:57:58;;;;;;;5.10;1.00;;;11.20;76.40;;;;;;5012332;28;20030;-76
2021/03/15 12:00:24;;;;;;;3.80;0.90;;;11.20;77.70;;;;;;5012248;28;20030;-77
2021/03/15 12:02:51;;;;;;;1.65;1.02;;;11.10;76.10;;;;;;5009872;28;20033;-77
2021/03/15 12:05:18;;;;;;;2.17;0.77;;;11.10;78.00;;;;;;4992947;28;20502;-77
2021/03/15 12:07:44;;;;;;;5.22;0.90;;;11.30;78.10;;;;;;4992639;28;20022;-77
2021/03/15 12:10:14;;;;;;;1.40;0.65;;;11.30;76.80;;;;;;4993002;28;20475;-77
2021/03/15 12:12:40;;;;;;;1.83;0.70;;;11.00;76.10;;;;;;4994838;28;20031;-77
2021/03/15 12:15:09;;;;;;;2.28;1.00;;;10.70;75.70;;;;;;5012341;28;20041;-77
2021/03/15 12:17:35;;;;;;;1.80;0.70;;;10.50;78.70;;;;;;5012054;28;20176;-77
2021/03/15 12:20:03;;;;;;;2.88;0.47;;;10.40;78.20;;;;;;5010823;28;20382;-77
2021/03/15 12:22:29;;;;;;;0.90;0.60;;;10.30;77.10;;;;;;5010447;28;20482;-77
2021/03/15 12:24:55;;;;;;;1.92;0.90;;;10.30;78.80;;;;;;5012150;28;20058;-77
2021/03/15 12:27:21;;;;;;;1.70;0.70;;;10.20;77.70;;;;;;5012153;28;20034;-77
2021/03/15 12:29:46;;;;;;;2.40;1.00;;;10.20;78.30;;;;;;5011952;28;20041;-77
2021/03/15 12:32:13;;;;;;;2.40;0.88;;;10.10;80.10;;;;;;5011898;28;20034;-76
2021/03/15 12:34:39;;;;;;;2.72;0.73;;;10.20;78.70;;;;;;5012259;28;20034;-77
2021/03/15 12:37:04;;;;;;;2.65;1.10;;;10.20;80.60;;;;;;5011781;28;20378;-77
2021/03/15 12:39:30;;;;;;;1.92;0.82;;;10.20;81.20;;;;;;5012010;28;20044;-77
2021/03/15 12:42:00;;;;;;;1.90;0.80;;;10.40;79.60;;;;;;5011910;28;20018;-77
2021/03/15 12:44:26;;;;;;;3.40;1.58;;;10.60;81.90;;;;;;5012222;28;20022;-77
2021/03/15 12:46:52;;;;;;;4.07;0.80;;;10.90;80.50;;;;;;5011732;28;20449;-77
2021/03/15 12:49:17;;;;;;;2.75;1.00;;;11.00;77.80;;;;;;5012063;28;20038;-76
2021/03/15 12:51:43;;;;;;;1.23;0.77;;;10.90;77.40;;;;;;5011348;28;20046;-77
2021/03/15 12:54:10;;;;;;;2.40;0.80;;;11.00;77.60;;;;;;5011829;28;20045;-77
2021/03/15 12:56:37;;;;;;;1.88;0.80;;;11.20;77.30;;;;;;5012683;28;20030;-77
2021/03/15 12:59:03;;;;;;;3.55;0.85;;;11.10;78.20;;;;;;5015629;28;20104;-77
2021/03/15 13:01:29;;;;;;;1.85;0.80;;;11.10;77.60;;;;;;5015495;28;20344;-77
2021/03/15 13:03:55;;;;;;;4.03;0.80;;;11.10;79.60;;;;;;5015545;28;20053;-77
2021/03/15 13:06:21;;;;;;;3.47;0.88;;;11.10;77.60;;;;;;5015424;28;20018;-77
2021/03/15 13:08:47;;;;;;;1.75;0.85;;;11.40;79.30;;;;;;5015557;28;20030;-77